Airfield :







YOU CAN JOIN US ON...

 
LOGIN :

Register | Disclaimer

   EN    FR    IT 

 









Legend :    VFR   Marginal VFR   IFR   Intensive IFR   Very Intensive IFR
Visi :
Ceiling :
>= 8 km
>= 3000ft
5 to 8 km
1000 to 3000 ft
1500m to 5 km
500 to 1000 ft
800 to 1500m
200 to 500 ft
< 800m
< 200 ft
Symbols :   Thunderstorms  Fog  Heavy snow  Heavy precipitations  Wind > 20 kt







- Airport Elevation : 244 ft


KSFM - Sanford Regional

CURRENT METAR :
  • 230556Z AUTO 03012G19KT 3SM -RA BR OVC006 11/10 A2998 RMK AO2 SLP157 6//// T01060100 10133 20106 56006 PNO $

EXPIRED METARs :
  • 230456Z AUTO 01013KT 3SM -RA BR OVC008 11/11 A2999 RMK AO2 CIG 005V010 SLP158 T01110106 PNO $
  • 230405Z AUTO 01012KT 3SM -RA BR OVC006 12/11 A2999 RMK AO2 CIG 004V010 PNO $
  • 230356Z AUTO 01018G22KT 2 1/2SM -RA BR OVC006 12/11 A2999 RMK AO2 CIG 004V010 SLP157 T01220111 401940083 PNO $

TAF N/A
KZBW FIR / North America



MET'MAP, your aeronautical weather chart ! - Copyright ORBIFLY December 2007 - Disclaimer

ORBIFLY MET'MAP TEAM :

Programming & Development : Alexandra Zaïnal
Concept & Development : Baudouin d'Aumeries
Co-Development & Prog : Marc-Olivier Méhu
Technical & hardware support : Manuel Goepfert

Contact : metmap@orbifly.com




SOURCES & CREDITS :

   NOAA